Glasco, KS

3:37 AM CDT on April 19, 2015 (GMT -0500)
Salina Municipal | | Change Station
CLOSE
Current Station
Airport
Location: Salina,
Elevation: 1286 ft
Nearby Weather Stations

Elev 1286 ft 38.80 °N, 97.65 °W | Updated 44 minutes ago

Partly Cloudy
Partly Cloudy
54 °F
Feels Like 54 °F
N
12
Wind Variable Wind from West

Today
High -- | Low -- °F
--% Chance of Precip.
Yesterday
High -- | Low -- °F
Precip. -- in
6:48 AM 8:12 PM
New Moon, 0% visible
Pressure 29.75 in
Visibility 10.0 miles
Clouds Clear
Dew Point 51 °F
Humidity 90%
Rainfall 0.01 in
Snow Depth Not available.
UV 0 out of 12
Pollen 8.10 out of 12
Air Quality Not available.
Flu Activity Sporadic
METAR KSLN 190753Z 28010KT 10SM CLR 12/11 A2976 RMK AO2 PRESRR SLP072 T01220106

More Conditions Fewer Conditions

Pressure 29.75 in
Visibility 10.0 miles
Clouds Clear
Dew Point 51 °F
Humidity 90%
Rainfall 0.01 in
Snow Depth Not available.
UV 0 out of 12
Pollen 8.10 out of 12
Air Quality Not available.
Flu Activity Sporadic
METAR KSLN 190753Z 28010KT 10SM CLR 12/11 A2976 RMK AO2 PRESRR SLP072 T01220106

More Conditions Fewer Conditions

10-Day Weather Forecast

Almanac

Astronomy

Apr. 19, 2015 Rise Set
Actual Time
Civil Twilight
Nautical Twilight
Astronomical Twilight
Moon
Length of Visible Light
Length of Day
Tomorrow will be .
, % of the Moon is Illuminated

Today's Extremes

State Highs State Lows

Community

WunderPhotos

Upload Photos

1,814,723 photos uploaded!

WunderBlogs® & News

Nearby

Air Quality

  Air Quality AQ Index Pollutant
Not available.

Snow Depth

Station Depth Elevation

Earthquake Activity

City Distance Mag. Time & Date
Minimum magnitude displayed is 2.5.

Coastal Water Temperatures

Place Temperature

Stations

Nearby Weather Stations

Station Location Temp. Windchill Dew Point Humidity Wind Precip. Elev Updated Type